Time;durP1;ratioP1;P1;durP2;ratioP2;P2;SDS_P1;SDS_P2;PMS_P1;PMS_P2;Temp;Humidity;BMP_temperature;BMP_pressure;BME280_temperature;BME280_humidity;BME280_pressure;Samples;Min_cycle;Max_cycle;Signal;HPM_P1;HPM_P2
2021/04/19 00:00:16;;;;;;;74.13;38.70;;;;;;;7.39;77.74;100597.66;115427;1200;23467;-62
2021/04/19 00:03:05;;;;;;;69.45;34.80;;;;;;;7.36;77.76;100606.91;115287;1199;23182;-63
2021/04/19 00:05:34;;;;;;;70.40;36.20;;;;;;;7.32;77.91;100603.47;115353;1199;23214;-62
2021/04/19 00:08:03;;;;;;;74.70;36.60;;;;;;;7.27;77.95;100599.25;115246;1199;26179;-62
2021/04/19 00:10:32;;;;;;;71.70;37.95;;;;;;;7.26;77.97;100600.47;115214;1203;23122;-61
2021/04/19 00:13:02;;;;;;;72.13;37.80;;;;;;;7.26;77.86;100596.94;115293;1200;27479;-62
2021/04/19 00:15:31;;;;;;;63.75;33.80;;;;;;;7.26;77.69;100603.23;115204;1200;26039;-62
2021/04/19 00:18:00;;;;;;;68.65;35.00;;;;;;;7.26;77.89;100599.71;115220;1203;23295;-62
2021/04/19 00:20:29;;;;;;;72.85;36.85;;;;;;;7.23;77.85;100598.59;115170;1203;24924;-62
2021/04/19 00:22:59;;;;;;;71.00;36.90;;;;;;;7.21;77.87;100601.05;115341;1199;23256;-62
2021/04/19 00:25:28;;;;;;;72.55;36.75;;;;;;;7.16;78.16;100596.05;115225;1200;23380;-63
2021/04/19 00:27:56;;;;;;;70.77;36.10;;;;;;;7.11;78.17;100590.29;115193;1200;23148;-62
2021/04/19 00:30:26;;;;;;;65.03;34.63;;;;;;;7.06;78.31;100593.62;115286;1199;23237;-62
2021/04/19 00:32:55;;;;;;;73.17;36.93;;;;;;;7.00;78.28;100596.19;115528;1200;23228;-62
2021/04/19 00:35:24;;;;;;;70.37;33.07;;;;;;;7.01;78.29;100600.53;115376;1199;23146;-62
2021/04/19 00:37:53;;;;;;;59.83;32.30;;;;;;;7.01;78.13;100600.53;115276;1203;24241;-62
2021/04/19 00:40:22;;;;;;;63.50;33.10;;;;;;;7.02;78.06;100607.63;115212;1200;23292;-61
2021/04/19 00:42:53;;;;;;;73.00;36.20;;;;;;;7.03;78.09;100606.41;115184;1200;27221;-62
2021/04/19 00:45:22;;;;;;;77.55;41.30;;;;;;;7.00;78.08;100598.97;115294;1200;23131;-62
2021/04/19 00:47:51;;;;;;;78.40;39.30;;;;;;;7.00;78.12;100603.73;115021;1199;26522;-62
2021/04/19 00:50:23;;;;;;;78.35;39.35;;;;;;;6.97;78.26;100601.86;115230;1199;26077;-61
2021/04/19 00:52:53;;;;;;;84.20;40.00;;;;;;;6.96;78.19;100603.07;115249;1200;23230;-62
2021/04/19 00:55:21;;;;;;;75.50;38.00;;;;;;;6.92;78.30;100602.41;115226;1200;23132;-63
2021/04/19 00:57:52;;;;;;;74.65;38.65;;;;;;;6.90;78.07;100602.86;115255;1200;23266;-62
2021/04/19 01:00:26;;;;;;;68.80;34.40;;;;;;;6.86;78.12;100598.64;115427;1200;23134;-62
2021/04/19 01:02:56;;;;;;;66.65;34.40;;;;;;;6.80;78.12;100601.20;115201;1200;23217;-62
2021/04/19 01:05:28;;;;;;;62.55;33.75;;;;;;;6.78;78.15;100602.87;115250;1199;23411;-62
2021/04/19 01:07:57;;;;;;;63.07;32.97;;;;;;;6.75;78.13;100612.85;115382;1200;23183;-61
2021/04/19 01:10:26;;;;;;;68.20;33.90;;;;;;;6.72;78.40;100610.98;115384;1200;23144;-62
2021/04/19 01:12:55;;;;;;;66.90;31.70;;;;;;;6.72;78.41;100605.44;115268;1199;23122;-63
2021/04/19 01:15:24;;;;;;;61.00;30.25;;;;;;;6.71;78.42;100617.73;115387;1200;26755;-62
2021/04/19 01:17:53;;;;;;;66.43;32.60;;;;;;;6.72;78.65;100612.97;115371;1199;23134;-62
2021/04/19 01:20:24;;;;;;;69.17;33.73;;;;;;;6.70;78.71;100610.65;115189;1199;26070;-62
2021/04/19 01:22:53;;;;;;;61.10;30.27;;;;;;;6.68;78.91;100610.31;115231;1203;25985;-62
2021/04/19 01:25:25;;;;;;;64.40;31.20;;;;;;;6.66;79.11;100612.76;115304;1200;23256;-63
2021/04/19 01:27:56;;;;;;;59.00;29.60;;;;;;;6.65;79.17;100610.41;115407;1199;26096;-61
2021/04/19 01:30:31;;;;;;;64.70;31.10;;;;;;;6.61;79.17;100601.41;115261;1200;23264;-61
2021/04/19 01:33:00;;;;;;;61.00;30.90;;;;;;;6.60;79.05;100597.10;115336;1200;23122;-62
2021/04/19 01:35:30;;;;;;;63.05;30.90;;;;;;;6.60;79.27;100599.88;115345;1199;23209;-62
2021/04/19 01:37:59;;;;;;;62.35;29.75;;;;;;;6.60;79.19;100599.88;115465;1200;23189;-62
2021/04/19 01:40:28;;;;;;;60.10;28.50;;;;;;;6.61;79.23;100593.09;115215;1200;23124;-62
2021/04/19 01:42:57;;;;;;;64.70;29.55;;;;;;;6.62;79.07;100587.09;115550;1200;23188;-62
2021/04/19 01:45:26;;;;;;;64.15;31.55;;;;;;;6.61;79.21;100595.87;115402;1200;24306;-62
2021/04/19 01:47:56;;;;;;;62.50;29.40;;;;;;;6.58;79.26;100580.88;115306;1199;23127;-62
2021/04/19 01:50:27;;;;;;;58.30;29.60;;;;;;;6.60;79.38;100588.78;115319;1200;23128;-62
2021/04/19 01:52:59;;;;;;;57.07;28.07;;;;;;;6.60;79.13;100586.77;115324;1200;23722;-62
2021/04/19 01:55:30;;;;;;;61.65;30.90;;;;;;;6.60;79.30;100591.55;115351;1200;23130;-60
2021/04/19 01:58:04;;;;;;;61.90;30.85;;;;;;;6.60;79.26;100595.08;115206;1200;23108;-62
2021/04/19 02:00:35;;;;;;;61.47;30.33;;;;;;;6.60;79.17;100591.55;115221;1200;23267;-62
2021/04/19 02:03:20;;;;;;;67.30;32.60;;;;;;;6.58;79.22;100591.98;115375;1200;23256;-62
2021/04/19 02:05:57;;;;;;;73.90;35.70;;;;;;;6.56;79.33;100593.66;115293;1200;23106;-62
2021/04/19 02:08:34;;;;;;;71.35;33.85;;;;;;;6.50;79.34;100587.88;115299;1199;23091;-63
2021/04/19 02:11:17;;;;;;;69.70;33.55;;;;;;;6.47;79.51;100586.78;115387;1200;23117;-63
2021/04/19 02:13:55;;;;;;;64.37;32.90;;;;;;;6.47;79.56;100592.33;115673;1203;23327;-63
2021/04/19 02:16:32;;;;;;;66.60;33.20;;;;;;;6.49;79.48;100586.33;115549;1199;23359;-63
2021/04/19 02:19:11;;;;;;;67.10;32.90;;;;;;;6.50;79.57;100587.88;115590;1204;23262;-63
2021/04/19 02:21:45;;;;;;;66.00;32.60;;;;;;;6.52;79.54;100591.77;115359;1199;23138;-63
2021/04/19 02:24:18;;;;;;;65.30;31.50;;;;;;;6.55;79.60;100590.11;115294;1199;24614;-63
2021/04/19 02:26:52;;;;;;;57.40;29.40;;;;;;;6.57;79.55;100578.56;115366;1200;23266;-62
2021/04/19 02:29:31;;;;;;;62.67;31.07;;;;;;;6.57;79.50;100579.34;115372;1199;23118;-63
2021/04/19 02:32:04;;;;;;;61.90;29.55;;;;;;;6.58;79.45;100578.11;115245;1200;26249;-63
2021/04/19 02:34:34;;;;;;;59.70;31.03;;;;;;;6.60;79.50;100570.12;115335;1200;23115;-62
2021/04/19 02:37:05;;;;;;;58.80;30.20;;;;;;;6.62;79.46;100576.00;115325;1199;23134;-62
2021/04/19 02:39:38;;;;;;;58.90;30.80;;;;;;;6.60;79.53;100578.44;115307;1200;23128;-63
2021/04/19 02:42:09;;;;;;;61.70;32.15;;;;;;;6.56;79.54;100572.22;115369;1200;23171;-63
2021/04/19 02:44:38;;;;;;;61.87;31.37;;;;;;;6.51;79.59;100567.25;115366;1200;23139;-63
2021/04/19 02:47:07;;;;;;;62.03;30.40;;;;;;;6.52;79.70;100569.57;115335;1200;23118;-63
2021/04/19 02:49:37;;;;;;;64.85;30.40;;;;;;;6.54;79.89;100567.13;115336;1203;23118;-63
2021/04/19 02:52:08;;;;;;;59.95;30.70;;;;;;;6.57;79.75;100561.91;115336;1199;23128;-63
2021/04/19 02:54:38;;;;;;;;;;;;;;;6.55;79.87;100559.59;115323;1207;24310;-63
2021/04/19 02:57:20;;;;;;;62.93;28.90;;;;;;;6.52;79.78;100561.25;115322;1199;23817;-63
2021/04/19 02:59:51;;;;;;;62.20;29.25;;;;;;;6.52;80.01;100560.47;115290;1200;23213;-62
2021/04/19 03:02:21;;;;;;;61.47;29.40;;;;;;;6.50;80.10;100555.38;115231;1200;27255;-62
2021/04/19 03:04:51;;;;;;;58.60;29.13;;;;;;;6.48;79.92;100557.81;115353;1199;27329;-64
2021/04/19 03:07:22;;;;;;;60.08;28.53;;;;;;;6.49;80.18;100553.83;115343;1200;23148;-62
2021/04/19 03:09:56;;;;;;;59.97;28.80;;;;;;;6.52;80.14;100552.14;115374;1199;23327;-63
2021/04/19 03:12:28;;;;;;;61.65;29.65;;;;;;;6.53;80.08;100553.71;115309;1200;23180;-63
2021/04/19 03:15:03;;;;;;;65.17;30.07;;;;;;;6.52;80.17;100549.38;115173;1205;23128;-63
2021/04/19 03:17:34;;;;;;;59.90;30.40;;;;;;;6.49;80.12;100551.06;115264;1200;25890;-62
2021/04/19 03:20:06;;;;;;;62.70;30.90;;;;;;;6.49;80.20;100558.59;115240;1200;26306;-63
2021/04/19 03:22:39;;;;;;;67.70;32.00;;;;;;;6.49;80.33;100548.28;115292;1200;23116;-63
2021/04/19 03:25:11;;;;;;;67.60;32.35;;;;;;;6.48;80.40;100541.17;115350;1200;26673;-62
2021/04/19 03:27:43;;;;;;;64.90;31.55;;;;;;;6.48;80.35;100543.16;115202;1200;23279;-63
2021/04/19 03:30:15;;;;;;;64.57;31.30;;;;;;;6.46;80.54;100542.83;115320;1200;23287;-62
2021/04/19 03:32:47;;;;;;;65.73;30.67;;;;;;;6.43;80.54;100538.94;115248;1200;23124;-62
2021/04/19 03:35:20;;;;;;;71.03;34.23;;;;;;;6.42;80.61;100533.84;114921;1200;26015;-63
2021/04/19 03:37:50;;;;;;;65.83;31.40;;;;;;;6.41;80.70;100529.53;115020;1200;26026;-63
2021/04/19 03:40:23;;;;;;;70.03;33.18;;;;;;;6.41;80.58;100533.06;115171;1200;23229;-63
2021/04/19 03:42:56;;;;;;;67.80;31.27;;;;;;;6.39;80.80;100535.50;115220;1199;24588;-62
2021/04/19 03:45:26;;;;;;;71.00;32.67;;;;;;;6.40;80.78;100541.83;115252;1199;23179;-62
2021/04/19 03:47:58;;;;;;;74.87;32.47;;;;;;;6.38;81.04;100524.86;115183;1206;26683;-63
2021/04/19 03:50:28;;;;;;;70.00;32.55;;;;;;;6.39;80.95;100526.43;115263;1200;23126;-63
2021/04/19 03:52:59;;;;;;;73.23;34.60;;;;;;;6.39;80.88;100534.75;115091;1200;23147;-63
2021/04/19 03:55:29;;;;;;;67.55;33.00;;;;;;;6.39;80.86;100534.75;115329;1200;23142;-62
2021/04/19 03:57:59;;;;;;;70.15;33.25;;;;;;;6.41;80.84;100533.06;115201;1200;23356;-63
2021/04/19 04:00:31;;;;;;;69.20;32.70;;;;;;;6.40;81.02;100527.97;115246;1203;24715;-62
2021/04/19 04:03:01;;;;;;;68.40;32.50;;;;;;;6.39;80.73;100531.97;115051;1200;23195;-62
2021/04/19 04:05:30;;;;;;;76.25;34.50;;;;;;;6.38;80.68;100533.97;115329;1203;23128;-62
2021/04/19 04:08:01;;;;;;;67.70;33.53;;;;;;;6.37;80.68;100524.08;115273;1200;24307;-61
2021/04/19 04:10:32;;;;;;;72.45;33.50;;;;;;;6.35;80.84;100520.22;115212;1203;27400;-62
2021/04/19 04:13:02;;;;;;;79.50;36.90;;;;;;;6.32;80.70;100518.32;115118;1203;23128;-65
2021/04/19 04:15:30;;;;;;;81.30;37.30;;;;;;;6.29;80.81;100524.77;114685;1200;23161;-64
2021/04/19 04:17:59;;;;;;;83.55;37.70;;;;;;;6.26;80.87;100523.65;114829;1203;23128;-68
2021/04/19 04:20:28;;;;;;;84.15;40.30;;;;;;;6.26;80.90;100522.87;114768;1206;23112;-64
2021/04/19 04:22:57;;;;;;;80.30;36.45;;;;;;;6.26;80.81;100520.09;115060;1199;26131;-62
2021/04/19 04:25:26;;;;;;;77.15;36.30;;;;;;;6.24;80.94;100517.77;115138;1200;23082;-60
2021/04/19 04:27:55;;;;;;;74.30;37.80;;;;;;;6.23;80.98;100518.20;115082;1200;23170;-62
2021/04/19 04:30:25;;;;;;;80.37;38.43;;;;;;;6.22;81.10;100511.89;114901;1200;25070;-61
2021/04/19 04:32:53;;;;;;;;;;;;;;;6.23;80.95;100509.88;115487;1207;27221;-62
2021/04/19 04:35:22;;;;;;;73.15;35.00;;;;;;;6.23;80.91;100505.12;115283;1203;21691;-62
2021/04/19 04:37:51;;;;;;;76.17;35.90;;;;;;;6.25;80.91;100507.44;115143;1199;23131;-62
2021/04/19 04:40:20;;;;;;;77.60;37.70;;;;;;;6.27;80.91;100513.34;115209;1200;23103;-62
2021/04/19 04:42:53;;;;;;;80.20;36.10;;;;;;;6.29;80.95;100519.98;116522;1200;23138;-62
2021/04/19 04:45:23;;;;;;;77.15;37.50;;;;;;;6.29;80.64;100519.22;115260;1200;23180;-61
2021/04/19 04:47:58;;;;;;;74.85;35.48;;;;;;;6.31;80.81;100511.98;115300;1200;23202;-62
2021/04/19 04:50:34;;;;;;;78.30;37.15;;;;;;;6.33;80.76;100508.80;115199;1199;23147;-61
2021/04/19 04:53:09;;;;;;;77.00;35.45;;;;;;;6.36;80.81;100524.53;115571;1200;26605;-62
2021/04/19 04:55:39;;;;;;;74.20;35.60;;;;;;;6.38;80.79;100516.54;115163;1200;23124;-62
2021/04/19 04:58:09;;;;;;;74.43;33.90;;;;;;;6.41;80.93;100523.98;115297;1199;23148;-62
2021/04/19 05:00:39;;;;;;;70.60;33.10;;;;;;;6.45;80.88;100525.44;115269;1200;23179;-61
2021/04/19 05:03:10;;;;;;;63.75;31.85;;;;;;;6.47;81.22;100524.98;115581;1200;23176;-62
2021/04/19 05:05:41;;;;;;;65.00;31.50;;;;;;;6.50;80.97;100526.85;115277;1200;27263;-62
2021/04/19 05:08:13;;;;;;;64.73;31.23;;;;;;;6.51;81.22;100536.73;115229;1203;23122;-62
2021/04/19 05:10:42;;;;;;;67.85;32.55;;;;;;;6.52;81.33;100546.59;115307;1200;27361;-62
2021/04/19 05:13:14;;;;;;;66.10;30.43;;;;;;;6.54;81.20;100538.61;115321;1199;23119;-62
2021/04/19 05:15:44;;;;;;;67.70;32.87;;;;;;;6.55;81.08;100545.73;115317;1199;23464;-61
2021/04/19 05:18:14;;;;;;;67.93;31.30;;;;;;;6.53;81.09;100548.95;115270;1200;23194;-62
2021/04/19 05:20:43;;;;;;;64.03;30.68;;;;;;;6.52;81.18;100554.92;115319;1200;23126;-62
2021/04/19 05:23:13;;;;;;;64.15;29.20;;;;;;;6.48;81.27;100552.27;115262;1199;23104;-62
2021/04/19 05:25:43;;;;;;;60.45;30.60;;;;;;;6.46;81.22;100556.70;115219;1200;23205;-62
2021/04/19 05:28:13;;;;;;;63.53;29.63;;;;;;;6.45;81.46;100552.39;115266;1203;24840;-62
2021/04/19 05:30:42;;;;;;;59.90;29.90;;;;;;;6.45;81.65;100555.94;115252;1200;23128;-62
2021/04/19 05:33:11;;;;;;;64.87;29.17;;;;;;;6.49;81.77;100562.16;115186;1203;23127;-61
2021/04/19 05:35:40;;;;;;;69.65;31.60;;;;;;;6.52;81.69;100560.47;115192;1199;25899;-62
2021/04/19 05:38:10;;;;;;;65.70;31.10;;;;;;;6.54;81.90;100558.02;115204;1200;23157;-62
2021/04/19 05:40:41;;;;;;;67.87;31.83;;;;;;;6.54;82.05;100553.27;115667;1199;28169;-61
2021/04/19 05:43:23;;;;;;;58.55;29.50;;;;;;;6.53;81.91;100548.95;115450;1200;27354;-62
2021/04/19 05:45:57;;;;;;;63.95;30.85;;;;;;;6.54;81.91;100552.48;115438;1200;23115;-62
2021/04/19 05:48:26;;;;;;;64.40;30.90;;;;;;;6.56;82.14;100554.83;115189;1200;28815;-62
2021/04/19 05:50:58;;;;;;;57.25;27.85;;;;;;;6.52;82.23;100550.16;115313;1199;23087;-63
2021/04/19 05:53:29;;;;;;;65.10;29.40;;;;;;;6.52;82.32;100550.16;115123;1200;24745;-63
2021/04/19 05:55:59;;;;;;;67.10;31.75;;;;;;;6.52;82.43;100555.70;115101;1204;23131;-65
2021/04/19 05:58:33;;;;;;;60.25;30.15;;;;;;;6.53;82.63;100550.94;115293;1200;23138;-62
2021/04/19 06:01:07;;;;;;;62.90;30.80;;;;;;;6.53;82.61;100545.39;115171;1200;23164;-61
2021/04/19 06:03:46;;;;;;;62.80;30.90;;;;;;;6.55;82.68;100545.73;115278;1200;23121;-62
2021/04/19 06:06:19;;;;;;;63.90;31.03;;;;;;;6.57;82.83;100546.05;115300;1200;23113;-62
2021/04/19 06:09:00;;;;;;;64.40;30.30;;;;;;;6.61;82.93;100549.49;115305;1200;23134;-63
2021/04/19 06:11:41;;;;;;;67.97;33.17;;;;;;;6.65;82.87;100552.93;115149;1203;23149;-63
2021/04/19 06:14:12;;;;;;;71.35;34.15;;;;;;;6.67;82.96;100544.94;115141;1200;23288;-62
2021/04/19 06:16:42;;;;;;;64.25;31.60;;;;;;;6.71;82.88;100542.83;115369;1199;23131;-62
2021/04/19 06:19:15;;;;;;;67.97;33.50;;;;;;;6.74;83.05;100544.72;115308;1199;26060;-63
2021/04/19 06:21:44;;;;;;;71.70;32.20;;;;;;;6.79;83.13;100535.82;115322;1199;23234;-62
2021/04/19 06:24:18;;;;;;;66.85;33.00;;;;;;;6.84;83.17;100540.82;115390;1199;23266;-62
2021/04/19 06:26:47;;;;;;;69.90;34.40;;;;;;;6.90;83.23;100524.38;115395;1200;26067;-62
2021/04/19 06:29:25;;;;;;;65.10;32.03;;;;;;;6.98;83.21;100525.69;115225;1203;23132;-62
2021/04/19 06:31:57;;;;;;;65.80;31.15;;;;;;;7.06;83.42;100525.00;115340;1203;24705;-65
2021/04/19 06:34:26;;;;;;;58.20;28.05;;;;;;;7.15;83.30;100525.09;115338;1199;27441;-62
2021/04/19 06:36:55;;;;;;;69.60;32.50;;;;;;;7.25;83.13;100512.06;115261;1200;27259;-61
2021/04/19 06:39:24;;;;;;;62.10;31.00;;;;;;;7.37;83.39;100518.81;115375;1200;23139;-62
2021/04/19 06:42:01;;;;;;;66.45;30.50;;;;;;;7.48;83.49;100519.19;115442;1199;25302;-64
2021/04/19 06:44:33;;;;;;;63.00;30.20;;;;;;;7.58;83.34;100507.70;115500;1199;23303;-62
2021/04/19 06:47:03;;;;;;;61.20;29.10;;;;;;;7.68;83.26;100525.98;115473;1200;23167;-62
2021/04/19 06:49:35;;;;;;;66.08;31.55;;;;;;;7.75;83.00;100525.73;115889;1200;23135;-61
2021/04/19 06:52:16;;;;;;;65.60;31.70;;;;;;;7.83;82.82;100532.58;115550;1200;23183;-62
2021/04/19 06:54:47;;;;;;;56.50;29.15;;;;;;;7.91;82.82;100533.08;115556;1199;23162;-61
2021/04/19 06:57:17;;;;;;;66.50;32.45;;;;;;;7.98;82.96;100532.83;115758;1200;23262;-61
2021/04/19 06:59:47;;;;;;;56.33;29.27;;;;;;;8.06;82.69;100531.33;115291;1200;23145;-61
2021/04/19 07:02:21;;;;;;;57.77;29.90;;;;;;;8.13;82.24;100536.63;115315;1203;23128;-61
2021/04/19 07:04:52;;;;;;;60.07;28.67;;;;;;;8.19;82.41;100537.59;115387;1203;23117;-61
2021/04/19 07:07:22;;;;;;;;;;;;;;;8.26;82.48;100540.11;115344;1207;26265;-61
2021/04/19 07:09:54;;;;;;;56.63;27.03;;;;;;;8.33;82.25;100539.06;115307;1200;26014;-61
2021/04/19 07:12:24;;;;;;;53.57;27.10;;;;;;;8.40;82.04;100545.12;115251;1200;26249;-61
2021/04/19 07:14:55;;;;;;;62.40;30.75;;;;;;;8.47;82.15;100535.72;115352;1204;23131;-60
2021/04/19 07:17:26;;;;;;;61.27;29.83;;;;;;;8.57;82.17;100543.65;115384;1200;24934;-61
2021/04/19 07:19:55;;;;;;;59.50;28.70;;;;;;;8.67;82.09;100533.34;115316;1200;23153;-61
2021/04/19 07:22:25;;;;;;;57.45;29.40;;;;;;;8.76;81.58;100528.56;115326;1200;23185;-61
2021/04/19 07:24:54;;;;;;;;;;;;;;;8.82;81.29;100531.52;115419;1207;24314;-61
2021/04/19 07:27:26;;;;;;;51.93;24.90;;;;;;;8.87;81.24;100519.78;115448;1200;24434;-61
2021/04/19 07:29:55;;;;;;;59.03;30.37;;;;;;;8.94;81.17;100525.04;115454;1199;24947;-61
2021/04/19 07:32:35;;;;;;;52.55;26.85;;;;;;;9.03;81.28;100530.64;115374;1200;23110;-61
2021/04/19 07:35:07;;;;;;;50.73;26.25;;;;;;;9.14;81.61;100528.19;115510;1199;27383;-60
2021/04/19 07:37:37;;;;;;;55.87;28.50;;;;;;;9.25;81.04;100516.59;115419;1200;27287;-60
2021/04/19 07:40:28;;;;;;;55.87;26.80;;;;;;;9.34;80.95;100522.16;115527;1200;26300;-61
2021/04/19 07:43:10;;;;;;;56.05;25.70;;;;;;;9.38;80.62;100520.77;115427;1200;23179;-61
2021/04/19 07:45:59;;;;;;;55.20;27.60;;;;;;;9.48;80.87;100510.38;115308;1200;23205;-61
2021/04/19 07:48:34;;;;;;;56.75;27.45;;;;;;;9.60;80.62;100523.41;115355;1199;23129;-61
2021/04/19 07:51:27;;;;;;;52.50;26.60;;;;;;;9.67;80.70;100520.29;115555;1199;23137;-61
2021/04/19 07:54:15;;;;;;;49.93;26.63;;;;;;;9.77;80.63;100510.67;115334;1199;23873;-61
2021/04/19 07:56:46;;;;;;;54.75;26.20;;;;;;;9.89;80.09;100515.30;115537;1200;23132;-61
2021/04/19 07:59:22;;;;;;;50.83;24.90;;;;;;;9.98;79.88;100508.92;115496;1199;23134;-62
2021/04/19 08:01:59;;;;;;;48.65;26.25;;;;;;;10.09;79.68;100515.58;115396;1203;23175;-61
2021/04/19 08:04:28;;;;;;;50.25;25.00;;;;;;;10.16;79.36;100511.72;115500;1203;24459;-61
2021/04/19 08:06:58;;;;;;;45.70;22.00;;;;;;;10.21;79.01;100506.27;115565;1199;23114;-62
2021/04/19 08:09:31;;;;;;;50.45;24.20;;;;;;;10.25;79.14;100508.88;115657;1200;24807;-62
2021/04/19 08:12:09;;;;;;;50.90;25.50;;;;;;;10.28;78.90;100503.13;115508;1200;23108;-61
2021/04/19 08:14:53;;;;;;;46.50;24.10;;;;;;;10.28;77.89;100500.33;115500;1199;24880;-62
2021/04/19 08:17:28;;;;;;;54.40;26.57;;;;;;;10.32;79.09;100500.97;115593;1200;23256;-62
2021/04/19 08:19:58;;;;;;;53.10;26.30;;;;;;;10.38;78.68;100501.87;115595;1200;23112;-62
2021/04/19 08:22:29;;;;;;;49.40;25.23;;;;;;;10.44;78.59;100508.35;115598;1200;23112;-62
2021/04/19 08:25:16;;;;;;;51.40;24.70;;;;;;;10.47;78.22;100503.82;115623;1200;23179;-61
2021/04/19 08:27:48;;;;;;;48.67;24.37;;;;;;;10.52;78.38;100503.97;115496;1200;23108;-62
2021/04/19 08:30:19;;;;;;;46.53;22.03;;;;;;;10.59;77.91;100502.86;115422;1200;23192;-62
2021/04/19 08:32:49;;;;;;;49.83;23.73;;;;;;;10.64;77.14;100507.00;115503;1200;23133;-62
2021/04/19 08:35:21;;;;;;;46.25;22.30;;;;;;;10.71;77.61;100499.06;115540;1200;23108;-62
2021/04/19 08:37:51;;;;;;;44.47;22.93;;;;;;;10.83;78.46;100505.66;115477;1199;23118;-62
2021/04/19 08:40:22;;;;;;;44.37;21.57;;;;;;;10.93;77.85;100504.35;115451;1200;23131;-62
2021/04/19 08:42:52;;;;;;;45.20;22.20;;;;;;;11.01;77.25;100508.33;115414;1200;23131;-61
2021/04/19 08:45:22;;;;;;;48.63;23.70;;;;;;;11.06;77.33;100502.89;115395;1200;23226;-61
2021/04/19 08:47:52;;;;;;;42.43;20.57;;;;;;;11.10;76.66;100503.47;115416;1200;23195;-62
2021/04/19 08:50:25;;;;;;;42.85;21.95;;;;;;;11.15;76.86;100502.05;115339;1200;23238;-62
2021/04/19 08:52:57;;;;;;;43.30;20.70;;;;;;;11.18;76.62;100498.28;115389;1200;23130;-62
2021/04/19 08:55:27;;;;;;;41.90;20.90;;;;;;;11.22;76.00;100494.07;115301;1200;23182;-62
2021/04/19 08:58:01;;;;;;;39.60;19.95;;;;;;;11.30;75.96;100486.08;115352;1199;23133;-62
2021/04/19 09:00:31;;;;;;;39.70;19.60;;;;;;;11.35;75.99;100491.02;115574;1200;23118;-62
2021/04/19 09:03:01;;;;;;;38.45;17.70;;;;;;;11.42;75.55;100490.66;115357;1200;23563;-62
2021/04/19 09:05:30;;;;;;;37.65;18.80;;;;;;;11.48;76.06;100494.34;115387;1203;23176;-62
2021/04/19 09:08:09;;;;;;;38.55;19.00;;;;;;;11.58;76.00;100486.63;115454;1199;23114;-61
2021/04/19 09:10:55;;;;;;;40.13;19.20;;;;;;;11.61;75.58;100485.68;115234;1199;23164;-61
2021/04/19 09:13:30;;;;;;;37.85;18.85;;;;;;;11.65;75.46;100483.47;115434;1199;23122;-61
2021/04/19 09:16:16;;;;;;;38.20;17.90;;;;;;;11.72;75.01;100491.48;115362;1200;23235;-61
2021/04/19 09:18:47;;;;;;;39.25;18.85;;;;;;;11.73;74.53;100491.00;115269;1200;23128;-61
2021/04/19 09:21:37;;;;;;;33.15;16.95;;;;;;;11.70;74.47;100494.77;115200;1200;23200;-62
2021/04/19 09:24:08;;;;;;;37.17;18.17;;;;;;;11.67;73.97;100480.99;115166;1200;26486;-63
2021/04/19 09:26:48;;;;;;;37.00;18.60;;;;;;;11.66;74.62;100488.59;115305;1200;26060;-60
2021/04/19 09:29:48;;;;;;;42.00;20.20;;;;;;;11.70;75.01;100480.02;115219;1200;23125;-61
2021/04/19 09:32:25;;;;;;;34.60;17.57;;;;;;;11.77;74.27;100476.84;115180;1203;23180;-62
2021/04/19 09:34:58;;;;;;;38.10;18.17;;;;;;;11.77;74.06;100477.59;114989;1203;23118;-61
2021/04/19 09:37:54;;;;;;;37.23;17.53;;;;;;;11.79;73.40;100477.91;114969;1200;23258;-62
2021/04/19 09:40:24;;;;;;;33.20;15.95;;;;;;;11.77;73.07;100477.59;115089;1200;23122;-62
2021/04/19 09:43:06;;;;;;;36.53;17.47;;;;;;;11.79;73.91;100469.52;115173;1200;23260;-61
2021/04/19 09:46:01;;;;;;;37.77;19.80;;;;;;;11.88;73.85;100463.81;115146;1203;23121;-62
2021/04/19 09:48:58;;;;;;;31.97;17.20;;;;;;;11.98;73.41;100458.91;115197;1200;24812;-62
2021/04/19 09:51:32;;;;;;;36.15;17.55;;;;;;;12.07;72.69;100470.76;114734;1205;23194;-62
2021/04/19 09:54:07;;;;;;;38.00;18.20;;;;;;;12.17;72.90;100469.39;114759;1205;26476;-61
2021/04/19 09:56:39;;;;;;;36.78;18.13;;;;;;;12.29;73.34;100463.98;114938;1205;23142;-61
2021/04/19 09:59:10;;;;;;;41.80;21.40;;;;;;;12.41;73.82;100462.89;114814;1203;23217;-62
2021/04/19 10:01:39;;;;;;;38.80;19.80;;;;;;;12.52;73.16;100469.41;114593;1203;23137;-61
2021/04/19 10:04:08;;;;;;;35.30;18.40;;;;;;;12.61;72.93;100462.92;114760;1205;26362;-60
2021/04/19 10:06:44;;;;;;;34.50;17.50;;;;;;;12.65;72.25;100466.28;114776;1203;23147;-60
2021/04/19 10:09:16;;;;;;;36.60;18.05;;;;;;;12.65;71.75;100452.28;115034;1203;23185;-62
2021/04/19 10:11:48;;;;;;;39.40;18.90;;;;;;;12.66;72.16;100445.44;114846;1202;23157;-61
2021/04/19 10:14:18;;;;;;;37.10;18.80;;;;;;;12.72;72.42;100444.25;114762;1203;23276;-63
2021/04/19 10:16:47;;;;;;;;;;;;;;;12.81;72.05;100444.10;114766;1208;27330;-62
2021/04/19 10:19:25;;;;;;;37.40;19.45;;;;;;;12.89;72.54;100444.48;114684;1206;21723;-62
2021/04/19 10:22:04;;;;;;;33.50;17.60;;;;;;;13.06;72.56;100448.27;114935;1203;23163;-62
2021/04/19 10:24:43;;;;;;;33.50;17.60;;;;;;;13.24;72.36;100438.80;114902;1206;27300;-62
2021/04/19 10:27:12;;;;;;;35.45;17.20;;;;;;;13.32;71.55;100432.28;114701;1202;23127;-62
2021/04/19 10:29:41;;;;;;;34.77;17.67;;;;;;;13.39;71.68;100431.05;115189;1199;27541;-62
2021/04/19 10:32:11;;;;;;;37.00;16.73;;;;;;;13.45;70.89;100432.66;115222;1200;24983;-61
2021/04/19 10:34:40;;;;;;;33.70;15.87;;;;;;;13.53;70.66;100422.53;115295;1200;27217;-62
2021/04/19 10:37:10;;;;;;;35.30;18.20;;;;;;;13.58;71.27;100421.83;115244;1200;23217;-62
2021/04/19 10:39:39;;;;;;;36.97;18.63;;;;;;;13.64;70.87;100422.65;115332;1203;23189;-62
2021/04/19 10:42:09;;;;;;;33.85;18.03;;;;;;;13.66;71.44;100417.31;115270;1200;23121;-61
2021/04/19 10:44:40;;;;;;;35.93;18.83;;;;;;;13.76;71.29;100415.87;115289;1200;23130;-61
2021/04/19 10:47:11;;;;;;;35.10;17.90;;;;;;;13.84;69.91;100419.02;115008;1203;25047;-61
2021/04/19 10:49:42;;;;;;;34.40;18.80;;;;;;;13.90;70.27;100411.41;115313;1200;23130;-62
2021/04/19 10:52:13;;;;;;;35.95;18.80;;;;;;;13.99;70.41;100407.66;115324;1201;23117;-62
2021/04/19 10:54:45;;;;;;;31.65;16.25;;;;;;;14.04;70.06;100404.10;115349;1200;27891;-62
2021/04/19 10:57:23;;;;;;;36.50;17.75;;;;;;;14.14;70.25;100399.84;115464;1199;23136;-62
2021/04/19 10:59:56;;;;;;;36.80;19.05;;;;;;;14.22;70.13;100407.30;115216;1199;23186;-62
2021/04/19 11:02:27;;;;;;;33.25;16.55;;;;;;;14.29;69.54;100401.27;115230;1200;23141;-64
2021/04/19 11:04:56;;;;;;;31.65;15.85;;;;;;;14.30;69.26;100391.55;115246;1199;24755;-63
2021/04/19 11:07:30;;;;;;;34.67;18.70;;;;;;;14.33;69.70;100396.18;115258;1203;26093;-64
2021/04/19 11:10:21;;;;;;;32.30;15.80;;;;;;;14.31;69.27;100392.33;115184;1204;23261;-64
2021/04/19 11:13:00;;;;;;;;;;;;;;;14.21;69.02;100394.55;115296;1206;26755;-64
2021/04/19 11:15:32;;;;;;;34.20;17.90;;;;;;;14.16;69.29;100386.84;115131;1199;21621;-64
2021/04/19 11:18:14;;;;;;;30.00;14.60;;;;;;;14.21;68.29;100393.77;115073;1200;24438;-63
2021/04/19 11:20:45;;;;;;;31.10;16.00;;;;;;;14.21;68.66;100385.34;115201;1199;23343;-62
2021/04/19 11:23:27;;;;;;;31.10;16.00;;;;;;;14.23;68.94;100377.19;115343;1200;23122;-63
2021/04/19 11:25:58;;;;;;;29.80;15.80;;;;;;;14.25;68.56;100378.23;115335;1199;23222;-62
2021/04/19 11:28:30;;;;;;;31.60;15.35;;;;;;;14.25;68.25;100375.42;115288;1203;23118;-62
2021/04/19 11:31:12;;;;;;;29.27;15.10;;;;;;;14.28;68.76;100368.82;115375;1203;23118;-63
2021/04/19 11:33:42;;;;;;;30.50;15.85;;;;;;;14.30;68.97;100382.35;115138;1203;25215;-64